createdAt,value
2022-10-27T00:00:40.533Z,11.60
2022-10-27T00:03:15.042Z,11.70
2022-10-27T00:05:44.025Z,11.60
2022-10-27T00:08:15.634Z,11.60
2022-10-27T00:10:45.001Z,11.50
2022-10-27T00:13:14.015Z,11.50
2022-10-27T00:15:42.084Z,11.50
2022-10-27T00:18:12.568Z,11.40
2022-10-27T00:20:40.541Z,11.30
2022-10-27T00:23:08.355Z,11.40
2022-10-27T00:25:36.202Z,11.40
2022-10-27T00:28:04.149Z,11.40
2022-10-27T00:30:31.980Z,11.30
2022-10-27T00:32:59.816Z,11.40
2022-10-27T00:35:28.977Z,11.40
2022-10-27T00:37:56.768Z,11.20
2022-10-27T00:40:24.581Z,11.30
2022-10-27T00:42:52.383Z,11.20
2022-10-27T00:45:20.397Z,11.10
2022-10-27T00:47:49.674Z,11.10
2022-10-27T00:50:20.843Z,11.00
2022-10-27T00:52:53.153Z,10.90
2022-10-27T00:55:26.056Z,10.90
2022-10-27T00:57:58.338Z,10.90
2022-10-27T01:00:26.361Z,10.90
2022-10-27T01:02:54.708Z,11.00
2022-10-27T01:05:25.423Z,11.10
2022-10-27T01:07:58.374Z,11.20
2022-10-27T01:10:27.047Z,11.30
2022-10-27T01:12:55.462Z,11.20
2022-10-27T01:15:26.028Z,11.20
2022-10-27T01:18:01.729Z,11.10
2022-10-27T01:21:14.643Z,11.10
2022-10-27T01:23:59.900Z,11.10
2022-10-27T01:26:43.827Z,11.10
2022-10-27T01:29:53.332Z,11.00
2022-10-27T01:32:29.412Z,11.00
2022-10-27T01:35:03.648Z,11.10
2022-10-27T01:37:39.092Z,11.00
2022-10-27T01:40:16.172Z,10.90
2022-10-27T01:42:49.765Z,10.80
2022-10-27T01:45:23.356Z,10.80
2022-10-27T01:47:53.550Z,10.90
2022-10-27T01:50:36.041Z,10.90
2022-10-27T01:53:16.960Z,10.80
2022-10-27T01:55:54.110Z,10.90
2022-10-27T01:58:53.398Z,10.80
2022-10-27T02:01:32.236Z,10.90
2022-10-27T02:04:07.621Z,10.90
2022-10-27T02:06:42.355Z,10.80
2022-10-27T02:09:15.658Z,10.70
2022-10-27T02:11:48.960Z,10.80
2022-10-27T02:14:17.306Z,10.90
2022-10-27T02:16:48.427Z,10.90
2022-10-27T02:19:22.455Z,10.90
2022-10-27T02:21:54.467Z,11.10
2022-10-27T02:24:23.291Z,11.10
2022-10-27T02:26:54.779Z,11.10
2022-10-27T02:29:26.581Z,11.10
2022-10-27T02:31:57.681Z,11.10
2022-10-27T02:34:27.885Z,11.10
2022-10-27T02:36:55.679Z,11.10
2022-10-27T02:39:23.493Z,11.10
2022-10-27T02:41:51.479Z,11.10
2022-10-27T02:44:19.277Z,11.10
2022-10-27T02:46:50.378Z,11.10
2022-10-27T02:49:20.711Z,11.00
2022-10-27T02:51:49.864Z,10.90
2022-10-27T02:54:17.695Z,10.90
2022-10-27T02:56:45.543Z,10.80
2022-10-27T02:59:13.351Z,10.80
2022-10-27T03:01:41.225Z,10.90
2022-10-27T03:04:09.872Z,11.00
2022-10-27T03:06:37.711Z,10.90
2022-10-27T03:09:06.902Z,11.00
2022-10-27T03:11:34.718Z,11.10
2022-10-27T03:14:02.538Z,11.00
2022-10-27T03:16:30.358Z,10.80
2022-10-27T03:18:58.192Z,10.80
2022-10-27T03:21:26.020Z,10.80
2022-10-27T03:23:53.835Z,10.70
2022-10-27T03:26:22.996Z,10.60
2022-10-27T03:28:50.834Z,10.60
2022-10-27T03:31:18.776Z,10.70
2022-10-27T03:33:46.572Z,10.80
2022-10-27T03:36:14.758Z,10.80
2022-10-27T03:38:42.705Z,10.90
2022-10-27T03:41:10.520Z,11.00
2022-10-27T03:43:39.697Z,11.00
2022-10-27T03:46:07.731Z,11.00
2022-10-27T03:48:35.531Z,10.90
2022-10-27T03:51:03.350Z,10.90
2022-10-27T03:53:31.156Z,10.90
2022-10-27T03:55:58.981Z,10.80
2022-10-27T03:58:26.816Z,10.70
2022-10-27T04:00:56.067Z,10.90
2022-10-27T04:03:23.866Z,10.70
2022-10-27T04:05:51.817Z,10.60
2022-10-27T04:08:19.679Z,10.80
2022-10-27T04:10:47.543Z,10.70
2022-10-27T04:13:15.428Z,10.60
2022-10-27T04:15:43.276Z,10.70
2022-10-27T04:18:12.687Z,10.70
2022-10-27T04:20:40.561Z,10.70
2022-10-27T04:23:08.411Z,10.80
2022-10-27T04:25:36.445Z,10.70
2022-10-27T04:28:05.615Z,10.60
2022-10-27T04:30:33.861Z,10.50
2022-10-27T04:33:01.783Z,10.50
2022-10-27T04:35:31.135Z,10.50
2022-10-27T04:37:59.069Z,10.60
2022-10-27T04:40:27.046Z,10.70
2022-10-27T04:42:55.300Z,10.60
2022-10-27T04:45:23.714Z,10.50
2022-10-27T04:47:51.874Z,10.50
2022-10-27T04:50:19.900Z,10.50
2022-10-27T04:52:57.266Z,10.50
2022-10-27T04:55:25.198Z,10.60
2022-10-27T04:57:53.173Z,10.50
2022-10-27T05:00:22.061Z,10.50
2022-10-27T05:02:55.457Z,10.40
2022-10-27T05:05:24.972Z,10.40
2022-10-27T05:07:54.544Z,10.30
2022-10-27T05:10:24.047Z,10.30
2022-10-27T05:12:52.379Z,10.30
2022-10-27T05:15:20.632Z,10.20
2022-10-27T05:17:48.910Z,10.20
2022-10-27T05:20:17.658Z,10.20
2022-10-27T05:22:45.730Z,10.20
2022-10-27T05:25:13.866Z,10.30
2022-10-27T05:27:43.218Z,10.40
2022-10-27T05:30:13.086Z,10.30
2022-10-27T05:32:45.073Z,10.30
2022-10-27T05:35:15.259Z,10.30
2022-10-27T05:37:45.695Z,10.30
2022-10-27T05:40:14.135Z,10.30
2022-10-27T05:42:51.253Z,10.40
2022-10-27T05:45:19.382Z,10.50
2022-10-27T05:47:47.335Z,10.40
2022-10-27T05:50:15.375Z,10.50
2022-10-27T05:52:47.456Z,10.60
2022-10-27T05:55:15.385Z,10.70
2022-10-27T05:57:44.563Z,10.60
2022-10-27T06:00:12.836Z,10.70
2022-10-27T06:02:40.666Z,10.80
2022-10-27T06:05:09.080Z,10.90
2022-10-27T06:07:36.876Z,10.90
2022-10-27T06:10:05.016Z,10.90
2022-10-27T06:12:32.952Z,10.90
2022-10-27T06:15:02.144Z,10.90
2022-10-27T06:17:29.935Z,10.90
2022-10-27T06:19:57.762Z,10.80
2022-10-27T06:22:25.675Z,10.80
2022-10-27T06:24:53.507Z,10.80
2022-10-27T06:27:21.364Z,10.80
2022-10-27T06:29:49.199Z,10.70
2022-10-27T06:32:18.416Z,10.60
2022-10-27T06:34:46.291Z,10.70
2022-10-27T06:37:14.141Z,10.80
2022-10-27T06:39:42.895Z,10.90
2022-10-27T06:42:10.763Z,10.90
2022-10-27T06:44:38.567Z,10.90
2022-10-27T06:47:06.455Z,11.00
2022-10-27T06:49:35.644Z,10.90
2022-10-27T06:52:03.461Z,10.80
2022-10-27T06:54:31.269Z,10.90
2022-10-27T06:56:59.091Z,10.90
2022-10-27T06:59:26.891Z,10.80
2022-10-27T07:01:54.791Z,10.80
2022-10-27T07:04:22.903Z,10.70
2022-10-27T07:06:52.153Z,10.70
2022-10-27T07:09:19.980Z,10.80
2022-10-27T07:11:47.839Z,10.90
2022-10-27T07:14:15.695Z,10.90
2022-10-27T07:16:43.552Z,11.10
2022-10-27T07:19:11.388Z,11.20
2022-10-27T07:21:39.229Z,11.30
2022-10-27T07:24:13.470Z,11.30
2022-10-27T07:26:42.309Z,11.30
2022-10-27T07:29:10.141Z,11.50
2022-10-27T07:31:37.968Z,11.50
2022-10-27T07:34:05.770Z,11.50
2022-10-27T07:36:33.625Z,11.50
2022-10-27T07:39:01.443Z,11.50
2022-10-27T07:41:30.675Z,11.50
2022-10-27T07:43:58.665Z,11.70
2022-10-27T07:46:26.528Z,11.80
2022-10-27T07:48:54.349Z,11.90
2022-10-27T07:51:22.173Z,12.00
2022-10-27T07:53:55.347Z,12.00
2022-10-27T07:56:25.838Z,12.10
2022-10-27T07:58:54.995Z,12.20
2022-10-27T08:01:22.887Z,12.30
2022-10-27T08:03:51.925Z,12.40
2022-10-27T08:06:20.545Z,12.40
2022-10-27T08:08:48.593Z,12.50
2022-10-27T08:11:16.458Z,12.80
2022-10-27T08:13:44.298Z,13.10
2022-10-27T08:16:13.468Z,13.10
2022-10-27T08:18:41.299Z,13.20
2022-10-27T08:21:09.109Z,13.30
2022-10-27T08:23:38.384Z,13.30
2022-10-27T08:26:06.409Z,13.40
2022-10-27T08:28:34.257Z,13.60
2022-10-27T08:31:02.065Z,13.70
2022-10-27T08:33:31.233Z,13.90
2022-10-27T08:36:02.516Z,14.10
2022-10-27T08:38:32.804Z,14.20
2022-10-27T08:41:22.520Z,14.50
2022-10-27T08:44:23.139Z,14.70
2022-10-27T08:46:53.239Z,14.90
2022-10-27T08:49:30.072Z,15.00
2022-10-27T08:52:04.607Z,15.30
2022-10-27T08:54:32.770Z,15.50
2022-10-27T08:57:04.377Z,15.70
2022-10-27T08:59:34.842Z,15.90
2022-10-27T09:02:11.605Z,16.10
2022-10-27T09:04:59.372Z,16.40
2022-10-27T09:07:33.548Z,16.90
2022-10-27T09:10:04.586Z,17.20
2022-10-27T09:12:54.486Z,17.70
2022-10-27T09:15:40.062Z,18.00
2022-10-27T09:18:13.242Z,18.40
2022-10-27T09:20:45.886Z,18.90
2022-10-27T09:23:17.156Z,19.40
2022-10-27T09:25:47.811Z,19.60
2022-10-27T09:28:20.893Z,19.70
2022-10-27T09:30:51.698Z,19.80
2022-10-27T09:33:23.769Z,20.00
2022-10-27T09:35:53.956Z,20.30
2022-10-27T09:38:24.985Z,20.50
2022-10-27T09:40:53.672Z,20.60
2022-10-27T09:43:23.474Z,20.90
2022-10-27T09:45:56.048Z,21.30
2022-10-27T09:48:26.767Z,21.50
2022-10-27T09:51:00.037Z,21.50
2022-10-27T09:53:40.286Z,21.30
2022-10-27T09:56:12.337Z,21.10
2022-10-27T09:58:47.061Z,20.90
2022-10-27T10:01:15.626Z,20.70
2022-10-27T10:03:55.403Z,20.80
2022-10-27T10:06:34.844Z,20.60
2022-10-27T10:09:19.452Z,20.90
2022-10-27T10:11:47.315Z,20.70
2022-10-27T10:14:23.789Z,20.70
2022-10-27T10:16:53.158Z,20.90
2022-10-27T10:19:24.704Z,21.30
2022-10-27T10:21:57.160Z,21.80
2022-10-27T10:24:27.610Z,22.40
2022-10-27T10:26:58.138Z,22.80
2022-10-27T10:29:30.677Z,23.00
2022-10-27T10:32:20.395Z,23.50
2022-10-27T10:34:48.452Z,23.80
2022-10-27T10:37:33.441Z,23.80
2022-10-27T10:40:28.402Z,23.80
2022-10-27T10:43:05.707Z,23.90
2022-10-27T10:45:36.640Z,24.40
2022-10-27T10:48:09.049Z,24.50
2022-10-27T10:50:47.036Z,24.60
2022-10-27T10:53:32.014Z,25.00
2022-10-27T10:56:03.187Z,24.90
2022-10-27T10:58:34.158Z,25.10
2022-10-27T11:01:04.166Z,25.20
2022-10-27T11:03:35.960Z,25.30
2022-10-27T11:06:06.603Z,25.30
2022-10-27T11:08:42.052Z,25.50
2022-10-27T11:11:16.194Z,25.70
2022-10-27T11:13:51.073Z,25.80
2022-10-27T11:16:19.683Z,25.90
2022-10-27T11:18:52.200Z,25.90
2022-10-27T11:21:29.096Z,25.60
2022-10-27T11:24:02.284Z,25.70
2022-10-27T11:26:34.612Z,25.50
2022-10-27T11:29:13.242Z,25.30
2022-10-27T11:31:49.084Z,25.20
2022-10-27T11:34:24.956Z,24.90
2022-10-27T11:36:57.917Z,24.70
2022-10-27T11:39:32.794Z,24.80
2022-10-27T11:42:11.246Z,24.80
2022-10-27T11:44:44.350Z,24.90
2022-10-27T11:47:20.977Z,24.80
2022-10-27T11:49:59.317Z,24.70
2022-10-27T11:52:35.034Z,24.50
2022-10-27T11:55:06.923Z,24.40
2022-10-27T11:57:44.776Z,24.40
2022-10-27T12:00:18.885Z,24.30
2022-10-27T12:03:16.030Z,24.30
2022-10-27T12:05:49.410Z,24.10
2022-10-27T12:11:23.310Z,23.80
2022-10-27T12:13:58.342Z,23.60
2022-10-27T12:16:32.493Z,23.50
2022-10-27T12:19:05.352Z,23.40
2022-10-27T12:21:41.984Z,23.30
2022-10-27T12:24:17.210Z,23.30
2022-10-27T12:26:50.501Z,23.30
2022-10-27T12:29:19.705Z,23.20
2022-10-27T12:31:53.540Z,23.00
2022-10-27T12:34:24.357Z,23.00
2022-10-27T12:36:58.063Z,23.00
2022-10-27T12:39:32.772Z,22.90
2022-10-27T12:42:12.160Z,22.80
2022-10-27T12:44:50.895Z,22.80
2022-10-27T12:47:33.458Z,22.70
2022-10-27T12:50:14.307Z,22.60
2022-10-27T12:52:52.041Z,22.50
2022-10-27T12:55:36.644Z,22.40
2022-10-27T12:58:11.525Z,22.40
2022-10-27T13:00:50.043Z,22.30
2022-10-27T13:03:48.278Z,22.20
2022-10-27T13:06:32.379Z,22.20
2022-10-27T13:09:25.337Z,22.20
2022-10-27T13:12:17.110Z,22.10
2022-10-27T13:15:20.348Z,22.10
2022-10-27T13:17:58.331Z,22.10
2022-10-27T13:20:42.598Z,22.10
2022-10-27T13:23:19.489Z,22.00
2022-10-27T13:25:52.812Z,22.00
2022-10-27T13:28:25.544Z,21.90
2022-10-27T13:30:57.855Z,22.00
2022-10-27T13:33:34.857Z,21.90
2022-10-27T13:36:22.775Z,21.90
2022-10-27T13:38:51.554Z,21.90
2022-10-27T13:41:50.826Z,21.80
2022-10-27T13:44:29.145Z,21.80
2022-10-27T13:47:13.116Z,21.80
2022-10-27T13:49:56.106Z,21.70
2022-10-27T13:52:28.979Z,21.70
2022-10-27T13:55:02.010Z,21.60
2022-10-27T13:58:00.442Z,21.60
2022-10-27T14:00:56.163Z,21.60
2022-10-27T14:03:43.292Z,21.60
2022-10-27T14:06:22.600Z,21.50
2022-10-27T14:08:51.941Z,21.50
2022-10-27T14:11:23.931Z,21.50
2022-10-27T14:13:55.246Z,21.40
2022-10-27T14:16:26.429Z,21.40
2022-10-27T14:19:03.449Z,21.40
2022-10-27T14:21:36.325Z,21.40
2022-10-27T14:24:07.035Z,21.40
2022-10-27T14:26:36.884Z,21.40
2022-10-27T14:29:05.677Z,21.40
2022-10-27T14:31:33.561Z,21.40
2022-10-27T14:34:17.490Z,21.40
2022-10-27T14:36:47.022Z,21.40
2022-10-27T14:39:26.687Z,21.40
2022-10-27T14:41:57.913Z,21.30
2022-10-27T14:44:29.605Z,21.30
2022-10-27T14:47:00.544Z,21.20
2022-10-27T14:49:33.767Z,21.20
2022-10-27T14:52:08.368Z,21.00
2022-10-27T14:54:38.194Z,21.00
2022-10-27T14:57:28.735Z,20.80
2022-10-27T14:59:56.588Z,20.70
2022-10-27T15:02:25.364Z,20.60
2022-10-27T15:04:53.236Z,20.60
2022-10-27T15:07:23.922Z,20.50
2022-10-27T15:09:53.311Z,20.40
2022-10-27T15:12:25.648Z,20.30
2022-10-27T15:14:55.332Z,20.30
2022-10-27T15:17:29.315Z,20.20
2022-10-27T15:19:59.466Z,20.10
2022-10-27T15:22:29.131Z,20.00
2022-10-27T15:24:58.564Z,20.00
2022-10-27T15:27:33.183Z,19.90
2022-10-27T15:30:02.351Z,19.90
2022-10-27T15:32:38.681Z,19.90
2022-10-27T15:35:29.030Z,19.80
2022-10-27T15:37:58.915Z,19.70
2022-10-27T15:40:43.731Z,19.70
2022-10-27T15:43:25.270Z,19.70
2022-10-27T15:45:59.140Z,19.60
2022-10-27T15:48:35.460Z,19.50
2022-10-27T15:51:07.073Z,19.50
2022-10-27T15:53:38.812Z,19.40
2022-10-27T15:56:08.709Z,19.40
2022-10-27T15:58:38.349Z,19.50
2022-10-27T16:01:11.982Z,19.30
2022-10-27T16:03:43.059Z,19.40
2022-10-27T16:06:25.356Z,19.50
2022-10-27T16:08:56.636Z,19.30
2022-10-27T16:11:25.577Z,19.30
2022-10-27T16:13:57.761Z,19.40
2022-10-27T16:16:26.804Z,19.40
2022-10-27T16:18:56.086Z,19.30
2022-10-27T16:21:26.837Z,19.20
2022-10-27T16:23:57.933Z,19.20
2022-10-27T16:26:28.460Z,19.10
2022-10-27T16:29:00.872Z,19.00
2022-10-27T16:31:30.247Z,18.90
2022-10-27T16:33:58.979Z,18.90
2022-10-27T16:36:26.844Z,18.80
2022-10-27T16:38:56.001Z,18.70
2022-10-27T16:41:27.294Z,18.70
2022-10-27T16:43:55.350Z,18.80
2022-10-27T16:46:23.173Z,18.70
2022-10-27T16:48:51.023Z,18.70
2022-10-27T16:51:19.133Z,18.70
2022-10-27T16:53:48.698Z,18.60
2022-10-27T16:56:17.923Z,18.60
2022-10-27T16:58:46.213Z,18.40
2022-10-27T17:01:16.557Z,18.30
2022-10-27T17:03:44.512Z,18.30
2022-10-27T17:06:12.516Z,18.20
2022-10-27T17:08:41.057Z,18.10
2022-10-27T17:11:10.118Z,18.10
2022-10-27T17:13:39.632Z,18.10
2022-10-27T17:16:08.728Z,18.10
2022-10-27T17:18:36.857Z,18.00
2022-10-27T17:21:04.854Z,18.00
2022-10-27T17:23:32.894Z,18.00
2022-10-27T17:26:02.197Z,17.90
2022-10-27T17:28:30.180Z,18.00
2022-10-27T17:31:03.931Z,18.00
2022-10-27T17:33:32.084Z,17.90
2022-10-27T17:36:01.360Z,17.70
2022-10-27T17:38:29.399Z,17.60
2022-10-27T17:40:58.574Z,17.40
2022-10-27T17:43:26.947Z,17.50
2022-10-27T17:46:04.182Z,17.30
2022-10-27T17:48:33.798Z,17.20
2022-10-27T17:51:06.834Z,17.40
2022-10-27T17:53:34.918Z,17.40
2022-10-27T17:56:04.889Z,17.40
2022-10-27T17:58:35.573Z,17.30
2022-10-27T18:01:07.386Z,17.30
2022-10-27T18:03:38.176Z,17.30
2022-10-27T18:06:09.163Z,17.40
2022-10-27T18:08:36.976Z,17.50
2022-10-27T18:11:06.267Z,17.60
2022-10-27T18:13:35.828Z,17.60
2022-10-27T18:16:09.419Z,17.50
2022-10-27T18:18:38.071Z,17.40
2022-10-27T18:21:07.228Z,17.30
2022-10-27T18:23:35.224Z,17.30
2022-10-27T18:26:03.389Z,17.30
2022-10-27T18:28:32.126Z,17.20
2022-10-27T18:31:04.852Z,17.20
2022-10-27T18:33:34.605Z,17.20
2022-10-27T18:36:06.520Z,17.20
2022-10-27T18:38:35.024Z,17.20
2022-10-27T18:41:05.259Z,17.20
2022-10-27T18:43:33.077Z,17.20
2022-10-27T18:46:01.307Z,17.20
2022-10-27T18:48:29.496Z,17.30
2022-10-27T18:50:59.580Z,17.20
2022-10-27T18:53:27.895Z,17.20
2022-10-27T18:55:55.984Z,17.20
2022-10-27T18:58:23.820Z,17.20
2022-10-27T19:00:51.626Z,17.30
2022-10-27T19:03:19.521Z,17.20
2022-10-27T19:05:47.431Z,17.10
2022-10-27T19:08:16.556Z,17.20
2022-10-27T19:10:44.378Z,17.10
2022-10-27T19:13:12.179Z,17.00
2022-10-27T19:15:41.374Z,16.90
2022-10-27T19:18:09.182Z,16.80
2022-10-27T19:20:37.048Z,16.70
2022-10-27T19:23:05.040Z,16.50
2022-10-27T19:25:35.230Z,16.40
2022-10-27T19:28:03.297Z,16.30
2022-10-27T19:30:31.110Z,16.20
2022-10-27T19:32:59.029Z,16.10
2022-10-27T19:35:26.885Z,16.00
2022-10-27T19:37:54.781Z,15.90
2022-10-27T19:40:22.849Z,15.80
2022-10-27T19:42:51.990Z,15.80
2022-10-27T19:45:19.810Z,15.70
2022-10-27T19:47:49.065Z,15.70
2022-10-27T19:50:16.933Z,15.60
2022-10-27T19:52:45.917Z,15.60
2022-10-27T19:55:13.740Z,15.60
2022-10-27T19:57:42.798Z,15.50
2022-10-27T20:00:13.447Z,15.50
2022-10-27T20:02:41.504Z,15.40
2022-10-27T20:05:09.801Z,15.30
2022-10-27T20:07:37.633Z,15.30
2022-10-27T20:10:05.801Z,15.20
2022-10-27T20:12:33.625Z,15.20
2022-10-27T20:15:01.480Z,15.20
2022-10-27T20:17:30.639Z,15.20
2022-10-27T20:19:58.472Z,15.20
2022-10-27T20:22:26.303Z,15.10
2022-10-27T20:24:55.279Z,15.10
2022-10-27T20:27:23.551Z,15.00
2022-10-27T20:29:51.404Z,15.00
2022-10-27T20:32:19.239Z,14.90
2022-10-27T20:34:48.382Z,14.90
2022-10-27T20:37:16.212Z,14.80
2022-10-27T20:39:44.072Z,14.80
2022-10-27T20:42:11.903Z,14.70
2022-10-27T20:44:39.699Z,14.70
2022-10-27T20:47:07.549Z,14.70
2022-10-27T20:49:35.334Z,14.70
2022-10-27T20:52:04.776Z,14.80
2022-10-27T20:54:32.596Z,14.70
2022-10-27T20:57:00.436Z,14.70
2022-10-27T20:59:28.278Z,14.60
2022-10-27T21:01:56.534Z,14.60
2022-10-27T21:04:24.580Z,14.60
2022-10-27T21:06:52.452Z,14.60
2022-10-27T21:09:22.144Z,14.50
2022-10-27T21:11:50.131Z,14.60
2022-10-27T21:14:20.129Z,14.60
2022-10-27T21:16:51.459Z,14.50
2022-10-27T21:19:19.940Z,14.40
2022-10-27T21:21:48.282Z,14.40
2022-10-27T21:24:17.442Z,14.50
2022-10-27T21:26:47.228Z,14.40
2022-10-27T21:29:15.574Z,14.50
2022-10-27T21:31:45.841Z,14.40
2022-10-27T21:34:14.943Z,14.40
2022-10-27T21:36:42.841Z,14.30
2022-10-27T21:39:10.692Z,14.30
2022-10-27T21:41:38.525Z,14.20
2022-10-27T21:44:07.696Z,14.20
2022-10-27T21:46:35.497Z,14.20
2022-10-27T21:49:03.556Z,14.00
2022-10-27T21:51:31.644Z,14.00
2022-10-27T21:54:01.523Z,13.90
2022-10-27T21:56:30.904Z,13.90
2022-10-27T21:58:59.017Z,13.80
2022-10-27T22:01:28.676Z,13.70
2022-10-27T22:03:57.235Z,13.80
2022-10-27T22:06:26.931Z,13.80
2022-10-27T22:08:55.562Z,13.80
2022-10-27T22:11:26.015Z,13.80
2022-10-27T22:13:54.265Z,13.80
2022-10-27T22:16:23.868Z,13.70
2022-10-27T22:18:56.150Z,13.70
2022-10-27T22:21:27.993Z,13.80
2022-10-27T22:23:55.853Z,13.80
2022-10-27T22:26:24.482Z,13.70
2022-10-27T22:28:52.907Z,13.70
2022-10-27T22:31:22.706Z,13.60
2022-10-27T22:33:52.161Z,13.60
2022-10-27T22:36:23.080Z,13.60
2022-10-27T22:38:53.863Z,13.60
2022-10-27T22:41:22.636Z,13.60
2022-10-27T22:43:50.850Z,13.50
2022-10-27T22:46:21.115Z,13.60
2022-10-27T22:48:49.791Z,13.60
2022-10-27T22:51:19.353Z,13.60
2022-10-27T22:53:48.928Z,13.50
2022-10-27T22:56:18.686Z,13.60
2022-10-27T22:58:48.920Z,13.50
2022-10-27T23:01:19.660Z,13.50
2022-10-27T23:03:51.491Z,13.40
2022-10-27T23:06:19.380Z,13.40
2022-10-27T23:08:52.104Z,13.40
2022-10-27T23:11:20.356Z,13.40
2022-10-27T23:13:48.349Z,13.50
2022-10-27T23:16:16.230Z,13.50
2022-10-27T23:18:44.088Z,13.50
2022-10-27T23:21:14.722Z,13.60
2022-10-27T23:23:43.302Z,13.70
2022-10-27T23:26:18.523Z,13.70
2022-10-27T23:28:49.984Z,13.70
2022-10-27T23:31:18.243Z,13.70
2022-10-27T23:33:46.551Z,13.80
2022-10-27T23:36:14.783Z,13.80
2022-10-27T23:38:42.632Z,13.80
2022-10-27T23:41:11.099Z,13.80
2022-10-27T23:43:40.328Z,13.80
2022-10-27T23:46:09.847Z,13.70
2022-10-27T23:48:38.589Z,13.70
2022-10-27T23:51:06.913Z,13.70
2022-10-27T23:53:34.791Z,13.70
2022-10-27T23:56:04.095Z,13.60
2022-10-27T23:58:33.460Z,13.60
